Time;durP1;ratioP1;P1;durP2;ratioP2;P2;SDS_P1;SDS_P2;PMS_P1;PMS_P2;Temp;Humidity;BMP_temperature;BMP_pressure;BME280_temperature;BME280_humidity;BME280_pressure;Samples;Min_cycle;Max_cycle;Signal;HPM_P1;HPM_P2
2022/04/28 00:02:25;;;;;;;7.03;5.53;;;9.70;58.10;;;5.44;80.17;96091.38;5054241;28;20036;-47
2022/04/28 00:04:57;;;;;;;8.88;6.20;;;9.60;58.20;;;5.34;80.53;96092.69;5060839;28;20451;-49
2022/04/28 00:07:22;;;;;;;7.93;5.80;;;9.60;58.40;;;5.29;79.86;96089.06;5052543;28;20025;-47
2022/04/28 00:10:05;;;;;;;8.38;6.55;;;9.50;58.40;;;5.18;80.28;96082.69;5053204;28;20029;-47
2022/04/28 00:12:34;;;;;;;8.70;6.57;;;9.40;58.60;;;5.09;80.67;96087.44;5055161;28;20442;-49
2022/04/28 00:15:00;;;;;;;10.90;6.60;;;9.30;58.40;;;5.01;80.97;96071.06;5068935;28;20341;-47
2022/04/28 00:17:32;;;;;;;7.65;6.25;;;9.20;58.60;;;4.93;80.83;96077.44;5052607;28;20064;-47
2022/04/28 00:19:57;;;;;;;8.52;6.70;;;9.10;58.70;;;4.84;81.46;96076.09;5052708;28;20123;-47
2022/04/28 00:22:24;;;;;;;11.15;6.78;;;9.10;58.90;;;4.83;82.51;96067.38;5052538;28;20032;-47
2022/04/28 00:24:50;;;;;;;9.32;6.28;;;9.00;59.20;;;4.86;82.48;96069.59;5052855;28;20032;-49
2022/04/28 00:27:17;;;;;;;8.70;6.78;;;9.00;59.40;;;4.90;82.56;96071.78;5052621;28;20025;-47
2022/04/28 00:29:43;;;;;;;10.00;6.65;;;9.00;59.70;;;5.01;82.14;96065.78;5052516;28;20155;-46
2022/04/28 00:32:10;;;;;;;6.88;5.30;;;9.00;60.20;;;5.24;81.67;96073.09;5052884;28;20104;-47
2022/04/28 00:34:35;;;;;;;8.10;6.50;;;9.10;60.90;;;5.37;81.03;96080.88;5052300;28;20020;-51
2022/04/28 00:37:05;;;;;;;7.03;6.32;;;9.10;60.90;;;5.43;80.24;96079.19;5053513;28;20112;-47
2022/04/28 00:39:31;;;;;;;7.90;5.78;;;9.20;61.20;;;5.50;80.24;96078.09;5055819;28;20472;-46
2022/04/28 00:42:10;;;;;;;7.38;5.68;;;9.30;61.10;;;5.47;80.09;96083.00;5052075;28;20033;-47
2022/04/28 00:44:37;;;;;;;8.02;6.05;;;9.30;60.80;;;5.44;79.34;96086.09;5068683;28;20056;-51
2022/04/28 00:47:09;;;;;;;7.97;6.22;;;9.30;60.50;;;5.33;79.02;96079.72;5053332;28;20025;-47
2022/04/28 00:52:21;;;;;;;7.53;6.18;;;9.20;60.00;;;5.01;79.09;96079.78;5061107;28;20056;-49
2022/04/28 00:55:03;;;;;;;8.40;6.55;;;9.20;59.90;;;4.85;79.12;96075.88;5055279;28;20020;-48
2022/04/28 00:57:33;;;;;;;10.90;7.50;;;9.10;60.00;;;4.73;80.12;96082.91;5055613;28;20123;-51
2022/04/28 00:59:59;;;;;;;8.75;7.00;;;9.00;59.80;;;4.62;79.62;96078.31;5056134;28;20059;-47
2022/04/28 01:02:28;;;;;;;11.50;8.18;;;8.90;59.70;;;4.52;81.13;96073.50;5073489;28;20440;-47
2022/04/28 01:05:03;;;;;;;10.30;8.13;;;8.80;59.80;;;4.44;81.34;96076.38;5055698;28;20441;-48
2022/04/28 01:07:34;;;;;;;11.15;8.38;;;8.80;60.00;;;4.35;82.21;96075.84;5077635;28;20025;-50
2022/04/28 01:10:06;;;;;;;11.02;8.30;;;8.60;59.90;;;4.23;83.58;96072.28;5059903;28;20099;-47
2022/04/28 01:12:38;;;;;;;15.93;8.38;;;8.60;60.10;;;4.21;85.00;96070.88;5060126;28;20028;-51
2022/04/28 01:15:05;;;;;;;9.95;7.47;;;8.50;60.70;;;4.29;85.23;96070.59;5078890;28;20083;-49
2022/04/28 01:17:31;;;;;;;10.15;7.72;;;8.40;61.10;;;4.36;84.86;96069.56;5060474;28;20025;-50
2022/04/28 01:19:56;;;;;;;9.82;7.85;;;8.40;61.40;;;4.37;84.34;96068.53;5060517;28;20025;-47
2022/04/28 01:22:26;;;;;;;9.23;7.35;;;8.40;61.40;;;4.32;84.88;96068.34;5077900;28;20020;-48
2022/04/28 01:25:09;;;;;;;8.57;6.82;;;8.40;61.70;;;4.40;84.91;96068.09;5059999;28;20029;-48
2022/04/28 01:27:39;;;;;;;9.60;7.43;;;8.40;62.30;;;4.41;84.56;96071.53;5077342;28;20105;-47
2022/04/28 01:30:16;;;;;;;8.75;6.82;;;8.40;62.20;;;4.38;84.59;96062.22;5059385;28;20037;-47
2022/04/28 01:32:42;;;;;;;8.32;7.15;;;8.40;62.50;;;4.41;84.74;96072.34;5077237;28;20174;-47
2022/04/28 01:35:11;;;;;;;10.02;7.65;;;8.40;62.60;;;4.47;84.84;96059.34;5077369;28;20028;-47
2022/04/28 01:37:37;;;;;;;10.20;7.68;;;8.50;63.20;;;4.56;84.35;96065.97;5059490;28;20107;-49
2022/04/28 01:40:06;;;;;;;11.52;8.25;;;8.50;63.60;;;4.59;84.04;96065.53;5070822;22;20784;-53
2022/04/28 01:42:35;;;;;;;8.50;6.47;;;8.60;63.90;;;4.64;83.96;96073.63;5032188;28;20041;-56
2022/04/28 01:45:06;;;;;;;11.93;7.10;;;8.60;63.80;;;4.63;83.51;96072.78;5025640;28;20033;-54
2022/04/28 01:47:35;;;;;;;8.05;6.53;;;8.60;63.60;;;4.60;83.57;96073.22;5017086;28;20557;-57
2022/04/28 01:50:08;;;;;;;10.45;8.40;;;8.60;63.70;;;4.55;84.02;96074.91;5031023;28;20033;-57
2022/04/28 01:55:21;;;;;;;11.32;8.77;;;8.60;63.30;;;4.43;84.26;96074.78;5040295;28;20109;-53
2022/04/28 01:57:48;;;;;;;12.88;8.73;;;8.60;63.30;;;4.40;84.42;96080.50;5040423;28;20029;-54
2022/04/28 02:00:15;;;;;;;12.10;9.05;;;8.60;63.30;;;4.40;84.67;96075.22;5020509;28;20025;-58
2022/04/28 02:02:42;;;;;;;15.45;8.93;;;8.60;63.40;;;4.39;84.07;96079.69;5037159;28;20108;-55
2022/04/28 02:05:13;;;;;;;14.82;9.95;;;8.50;63.30;;;4.33;84.99;96077.09;5055197;28;20036;-57
2022/04/28 02:07:42;;;;;;;15.98;9.88;;;8.50;63.50;;;4.33;85.34;96085.00;5055101;28;20032;-54
2022/04/28 02:10:08;;;;;;;13.32;10.20;;;8.50;63.80;;;4.34;85.76;96078.69;5054970;28;20052;-53
2022/04/28 02:12:38;;;;;;;13.40;10.18;;;8.50;64.00;;;4.36;85.31;96080.09;5037273;28;20533;-56
2022/04/28 02:15:04;;;;;;;11.95;9.25;;;8.50;64.30;;;4.38;85.41;96083.31;5034970;28;20034;-58
2022/04/28 02:17:39;;;;;;;13.52;10.02;;;8.50;64.30;;;4.36;85.27;96085.38;5033950;28;20395;-56
2022/04/28 02:20:08;;;;;;;15.55;10.02;;;8.50;64.60;;;4.33;85.45;96077.09;5034789;28;20032;-58
2022/04/28 02:22:34;;;;;;;13.85;9.32;;;8.50;64.70;;;4.37;85.85;96079.06;5036599;28;20044;-56
2022/04/28 02:25:04;;;;;;;12.18;8.40;;;8.50;64.90;;;4.57;84.98;96084.19;5053546;28;20437;-58
2022/04/28 02:27:33;;;;;;;11.70;8.05;;;8.50;65.40;;;4.80;83.88;96082.84;5053649;28;20021;-56
2022/04/28 02:30:02;;;;;;;11.23;8.27;;;8.60;65.80;;;4.88;83.38;96086.00;5054458;28;20035;-58
2022/04/28 02:35:27;;;;;;;12.65;8.93;;;8.80;66.10;;;4.82;83.72;96096.59;5054780;28;20032;-53
2022/04/28 02:37:55;;;;;;;11.43;7.50;;;8.80;65.80;;;4.82;83.41;96099.25;5054732;28;20111;-53
2022/04/28 02:40:24;;;;;;;10.85;8.32;;;8.80;65.80;;;4.73;83.51;96097.91;5042532;28;20045;-56
2022/04/28 02:42:55;;;;;;;12.60;8.80;;;8.80;65.70;;;4.71;83.79;96095.50;5053832;28;20040;-56
2022/04/28 02:45:27;;;;;;;13.02;9.00;;;8.80;65.70;;;4.65;84.20;96101.63;5054217;28;20040;-56
2022/04/28 02:47:53;;;;;;;11.75;8.68;;;8.90;65.50;;;4.62;84.12;96094.13;5045392;28;20408;-58
2022/04/28 02:50:33;;;;;;;10.52;8.20;;;8.80;65.40;;;4.53;84.39;96095.41;5032800;28;20036;-56
2022/04/28 02:53:05;;;;;;;11.63;8.63;;;8.80;65.50;;;4.44;84.29;96084.31;5033987;28;20061;-56
2022/04/28 02:55:34;;;;;;;13.80;8.38;;;8.80;65.50;;;4.52;84.63;96093.81;5065926;28;20036;-57
2022/04/28 02:58:00;;;;;;;11.50;8.40;;;8.80;65.70;;;4.52;84.77;96096.44;5034168;28;20078;-57
2022/04/28 03:00:41;;;;;;;10.68;8.90;;;8.80;65.70;;;4.50;84.53;96098.47;5032665;28;20406;-57
2022/04/28 03:03:10;;;;;;;14.43;9.80;;;8.80;65.80;;;4.45;84.59;96098.31;5029350;28;20029;-55
2022/04/28 03:10:46;;;;;;;12.65;8.95;;;8.70;65.60;;;4.44;84.63;96101.97;5020848;28;20032;-56
2022/04/28 03:11:06;;;;;;;14.05;9.85;;;8.70;65.40;;;4.30;84.99;96103.88;5033706;28;20119;-56
2022/04/28 03:13:34;;;;;;;16.52;10.80;;;8.60;65.20;;;4.28;84.80;96108.56;5033347;28;20057;-55
2022/04/28 03:16:03;;;;;;;16.48;10.80;;;8.60;65.00;;;4.22;84.49;96110.22;5036310;28;20060;-58
2022/04/28 03:18:29;;;;;;;16.45;11.65;;;8.50;64.80;;;4.13;84.23;96103.56;5019581;28;20033;-57
2022/04/28 03:20:55;;;;;;;15.80;12.00;;;8.40;64.60;;;4.02;84.37;96105.03;5035851;28;20498;-58
2022/04/28 03:23:22;;;;;;;17.70;12.57;;;8.30;64.60;;;3.92;84.81;96107.34;5035678;28;20491;-53
2022/04/28 03:25:52;;;;;;;18.65;12.80;;;8.30;64.50;;;3.80;85.61;96103.72;5019122;28;20391;-55
2022/04/28 03:28:24;;;;;;;19.60;13.52;;;8.20;64.70;;;3.74;85.40;96102.72;5018886;28;20035;-54
2022/04/28 03:30:50;;;;;;;20.40;13.30;;;8.10;64.80;;;3.63;85.70;96106.81;5053354;28;20033;-53
2022/04/28 03:33:17;;;;;;;22.38;14.90;;;8.00;64.70;;;3.53;86.27;96111.72;5035445;28;20074;-57
2022/04/28 03:35:46;;;;;;;21.08;14.13;;;7.90;64.80;;;3.47;86.37;96109.91;5053225;28;20094;-58
2022/04/28 03:38:14;;;;;;;21.25;13.15;;;7.90;65.00;;;3.40;86.50;96099.38;5035501;28;20044;-56
2022/04/28 03:40:42;;;;;;;23.15;15.27;;;7.70;65.10;;;3.34;86.96;96110.75;5044787;28;20042;-58
2022/04/28 03:43:09;;;;;;;24.02;15.25;;;7.70;65.30;;;3.28;87.29;96116.03;5040258;28;20033;-57
2022/04/28 03:45:36;;;;;;;29.20;16.95;;;7.70;65.50;;;3.24;87.56;96120.91;5048405;28;20294;-56
2022/04/28 03:48:03;;;;;;;29.00;16.77;;;7.60;65.60;;;3.20;87.60;96117.88;5031909;28;20033;-57
2022/04/28 03:50:38;;;;;;;24.23;15.90;;;7.50;65.70;;;3.19;87.64;96116.22;5064960;28;20029;-58
2022/04/28 03:53:05;;;;;;;27.05;17.20;;;7.50;65.80;;;3.16;87.88;96118.47;5033030;28;20036;-54
2022/04/28 03:55:31;;;;;;;31.58;17.88;;;7.40;65.70;;;3.16;88.44;96121.09;5031680;28;20410;-56
2022/04/28 03:58:00;;;;;;;26.77;16.67;;;7.40;65.90;;;3.13;88.55;96130.22;5031621;28;20076;-55
2022/04/28 04:00:29;;;;;;;25.40;16.50;;;7.40;66.10;;;3.16;88.59;96126.38;5048314;28;20387;-57
2022/04/28 04:03:01;;;;;;;28.20;17.77;;;7.40;66.10;;;3.15;89.13;96137.91;5048198;28;20021;-58
2022/04/28 04:05:33;;;;;;;31.23;19.48;;;7.40;66.60;;;3.13;88.71;96138.09;5031747;28;20033;-58
2022/04/28 04:07:58;;;;;;;32.85;18.85;;;7.30;66.70;;;3.12;89.08;96138.31;5032719;28;20087;-55
2022/04/28 04:10:27;;;;;;;30.80;18.48;;;7.30;66.70;;;3.08;88.83;96135.28;5032724;28;20030;-57
2022/04/28 04:12:53;;;;;;;32.38;19.20;;;7.30;66.90;;;3.12;88.74;96136.50;5014881;28;20125;-58
2022/04/28 04:15:19;;;;;;;31.90;19.73;;;7.30;66.90;;;3.11;88.87;96142.78;5064428;28;20112;-57
2022/04/28 04:17:45;;;;;;;32.00;18.02;;;7.30;66.90;;;3.12;88.80;96139.13;5032572;28;20067;-58
2022/04/28 04:20:14;;;;;;;32.75;18.63;;;7.30;66.80;;;3.09;88.72;96130.84;5031279;28;20021;-55
2022/04/28 04:22:40;;;;;;;31.90;19.52;;;7.30;66.90;;;3.12;89.18;96141.75;5031050;28;20026;-58
2022/04/28 04:25:09;;;;;;;30.10;18.13;;;7.30;67.00;;;3.13;88.89;96142.56;5047733;28;20056;-53
2022/04/28 04:27:35;;;;;;;30.08;18.48;;;7.40;67.20;;;3.16;89.19;96148.22;5064253;28;20542;-58
2022/04/28 04:32:17;;;;;;;34.38;20.90;;;7.40;67.10;;;3.08;89.92;96127.41;5047696;28;20033;-57
2022/04/28 04:32:48;;;;;;;34.17;20.10;;;7.40;67.20;;;3.28;89.93;96156.34;5031620;28;20454;-53
2022/04/28 04:35:14;;;;;;;30.13;17.50;;;7.40;67.30;;;3.30;89.66;96154.31;5030921;28;20148;-56
2022/04/28 04:37:40;;;;;;;31.80;18.95;;;7.50;67.10;;;3.30;89.83;96159.56;5032167;28;20061;-57
2022/04/28 04:40:09;;;;;;;28.65;17.50;;;7.50;67.10;;;3.33;89.26;96159.16;5046442;28;20048;-57
2022/04/28 04:42:35;;;;;;;33.97;19.77;;;7.50;67.10;;;3.34;89.25;96166.03;5030825;28;20075;-57
2022/04/28 04:45:08;;;;;;;32.25;18.90;;;7.60;67.10;;;3.35;90.06;96162.38;5032140;28;20056;-58
2022/04/28 04:47:38;;;;;;;32.60;18.20;;;7.60;67.20;;;3.38;90.19;96169.88;5030992;28;20049;-58
2022/04/28 04:50:08;;;;;;;29.50;18.30;;;7.60;67.40;;;3.50;90.56;96171.91;5031190;28;20061;-57
2022/04/28 04:52:37;;;;;;;34.65;21.05;;;7.70;67.50;;;3.60;90.06;96170.44;5031475;28;20387;-57
2022/04/28 04:55:03;;;;;;;29.75;19.15;;;7.70;67.90;;;3.74;89.85;96175.72;5032233;28;20037;-58
2022/04/28 04:57:29;;;;;;;30.00;18.35;;;7.80;67.80;;;3.98;89.79;96187.38;5026119;28;20029;-58
2022/04/28 04:59:55;;;;;;;26.73;17.92;;;7.90;68.00;;;4.24;88.62;96186.50;5051314;28;20033;-57
2022/04/28 05:02:23;;;;;;;23.67;16.90;;;8.10;68.00;;;4.44;88.53;96181.91;5033156;28;20047;-58
2022/04/28 05:05:00;;;;;;;25.95;17.00;;;8.30;68.10;;;4.66;87.68;96182.41;5032756;28;20523;-58
2022/04/28 05:07:38;;;;;;;25.83;17.50;;;8.50;68.00;;;4.87;86.51;96192.63;5039363;28;20044;-57
2022/04/28 05:10:05;;;;;;;24.95;16.27;;;8.70;68.10;;;5.04;85.85;96192.09;5045648;28;20025;-58
2022/04/28 05:12:31;;;;;;;20.38;14.65;;;8.90;67.90;;;5.24;85.49;96189.31;4997063;28;20037;-58
2022/04/28 05:14:59;;;;;;;18.77;13.82;;;9.10;67.60;;;5.44;84.70;96194.41;5031032;28;20079;-58
2022/04/28 05:17:31;;;;;;;16.80;12.43;;;9.30;68.20;;;5.66;84.13;96198.28;5031101;28;20051;-58
2022/04/28 05:20:00;;;;;;;16.27;12.00;;;9.60;67.20;;;5.90;83.52;96203.75;5044184;28;20040;-57
2022/04/28 05:22:26;;;;;;;14.77;11.07;;;9.80;66.80;;;6.10;82.47;96204.34;5029365;28;20062;-59
2022/04/28 05:24:52;;;;;;;17.75;12.30;;;10.00;66.60;;;6.30;81.60;96205.97;5029035;28;20037;-58
2022/04/28 05:27:17;;;;;;;14.93;11.73;;;10.30;66.20;;;6.54;80.79;96205.03;5061409;28;20108;-58
2022/04/28 05:29:45;;;;;;;16.08;11.20;;;10.50;65.90;;;6.77;80.08;96211.47;5028223;28;20112;-58
2022/04/28 05:32:11;;;;;;;14.32;10.63;;;10.70;65.60;;;6.97;79.23;96205.91;5012939;28;20476;-56
2022/04/28 05:34:37;;;;;;;14.20;10.68;;;11.00;65.30;;;7.06;78.08;96204.56;5049313;28;20068;-54
2022/04/28 05:37:03;;;;;;;14.05;10.60;;;11.20;64.80;;;7.22;77.20;96218.97;5031436;28;20057;-58
2022/04/28 05:39:29;;;;;;;13.90;10.18;;;11.40;64.30;;;7.34;76.62;96219.81;5027684;28;20395;-57
2022/04/28 05:42:00;;;;;;;12.80;10.00;;;11.70;63.80;;;7.50;76.16;96218.34;5035847;28;20037;-58
2022/04/28 05:47:10;;;;;;;13.57;10.90;;;12.10;62.80;;;7.84;74.78;96227.34;5023465;28;20124;-59
2022/04/28 05:49:38;;;;;;;14.45;11.02;;;12.40;62.30;;;7.98;74.73;96228.69;5029683;28;20032;-57
2022/04/28 05:52:04;;;;;;;12.52;9.52;;;12.60;61.60;;;7.93;73.58;96223.31;5030560;28;20037;-56
2022/04/28 05:54:29;;;;;;;13.57;10.38;;;12.80;61.00;;;8.01;73.59;96225.59;5033404;28;20507;-57
2022/04/28 05:56:55;;;;;;;12.13;10.02;;;13.00;60.40;;;8.23;73.54;96233.75;5040965;28;20116;-58
2022/04/28 05:59:21;;;;;;;15.30;10.88;;;13.20;60.00;;;8.35;73.00;96234.53;5031250;28;20021;-56
2022/04/28 06:01:50;;;;;;;15.15;10.27;;;13.40;59.70;;;8.50;72.63;96243.91;5034455;28;20030;-58
2022/04/28 06:04:15;;;;;;;14.95;10.80;;;13.50;59.30;;;8.57;71.61;96240.03;5062738;28;20022;-57
2022/04/28 06:06:41;;;;;;;12.45;10.02;;;13.70;59.50;;;8.84;71.38;96247.47;5038651;28;20029;-54
2022/04/28 06:09:07;;;;;;;12.73;10.27;;;13.90;58.60;;;8.86;70.76;96242.72;5030507;28;20454;-58
2022/04/28 06:11:36;;;;;;;14.50;10.70;;;14.00;58.20;;;8.90;70.43;96245.69;5029601;28;20029;-55
2022/04/28 06:14:01;;;;;;;13.02;10.10;;;14.30;57.80;;;9.10;70.20;96256.72;5056143;28;20683;-56
2022/04/28 06:16:27;;;;;;;12.05;9.50;;;14.40;57.60;;;9.20;68.98;96245.47;5065548;28;20079;-56
2022/04/28 06:18:53;;;;;;;12.32;9.80;;;14.60;57.20;;;9.30;69.36;96258.13;5035869;28;20033;-57
2022/04/28 06:21:18;;;;;;;11.88;9.75;;;14.80;56.80;;;9.52;68.10;96255.56;5053902;28;20491;-55
2022/04/28 06:23:47;;;;;;;11.95;9.45;;;15.00;56.50;;;9.63;67.72;96255.50;5053995;28;20116;-55
2022/04/28 06:26:13;;;;;;;12.68;10.00;;;15.20;56.00;;;9.89;66.43;96264.66;5053468;28;20678;-52
2022/04/28 06:28:40;;;;;;;13.20;9.20;;;15.40;55.70;;;9.98;65.95;96259.75;5019848;28;20377;-56
2022/04/28 06:31:06;;;;;;;11.45;9.57;;;15.60;55.10;;;9.91;65.65;96267.91;5053993;28;20057;-56
2022/04/28 06:33:32;;;;;;;10.00;8.80;;;15.80;54.40;;;9.81;66.07;96267.75;5052397;28;20033;-55
2022/04/28 06:35:58;;;;;;;11.85;9.35;;;15.90;53.70;;;9.60;66.35;96268.47;5051932;28;20033;-55
2022/04/28 06:38:27;;;;;;;13.48;9.60;;;16.00;52.90;;;9.86;66.13;96265.16;5053764;28;20482;-55
2022/04/28 06:41:08;;;;;;;12.57;9.80;;;16.10;52.70;;;9.75;66.04;96270.59;5052473;28;20041;-58
2022/04/28 06:43:37;;;;;;;12.35;9.13;;;16.30;51.90;;;10.00;65.55;96270.97;5047799;28;20037;-58
2022/04/28 06:46:12;;;;;;;11.35;9.68;;;16.30;51.70;;;10.16;65.45;96270.13;5052933;28;20029;-55
2022/04/28 06:48:38;;;;;;;11.25;9.27;;;16.50;51.60;;;10.23;64.58;96269.94;5053569;28;20076;-52
2022/04/28 06:51:09;;;;;;;13.50;10.38;;;16.60;51.20;;;10.28;64.94;96278.06;5053489;28;20519;-58
2022/04/28 06:53:40;;;;;;;13.65;8.90;;;16.80;50.80;;;10.35;64.52;96268.03;5035427;28;20033;-55
2022/04/28 06:56:13;;;;;;;13.10;9.93;;;16.90;50.50;;;10.47;63.56;96275.91;5051178;28;20075;-58
2022/04/28 06:58:39;;;;;;;10.27;8.65;;;17.10;50.10;;;10.70;63.01;96277.53;5053040;28;20033;-57
2022/04/28 07:01:05;;;;;;;10.80;9.70;;;17.20;50.00;;;10.86;62.80;96281.16;5053238;28;20036;-59
2022/04/28 07:03:34;;;;;;;10.95;8.93;;;17.40;49.60;;;10.87;62.71;96280.09;5051532;28;20064;-57
2022/04/28 07:06:00;;;;;;;10.95;9.02;;;17.50;49.10;;;11.18;61.62;96283.09;5034840;28;20095;-58
2022/04/28 07:08:35;;;;;;;11.13;8.90;;;17.70;48.90;;;11.41;61.14;96290.03;5036228;28;20030;-57
2022/04/28 07:11:01;;;;;;;11.13;9.27;;;17.90;48.60;;;11.49;60.51;96281.56;5032604;28;20029;-57
2022/04/28 07:13:27;;;;;;;9.82;8.63;;;18.10;48.10;;;11.81;60.56;96279.72;5033027;28;20036;-58
2022/04/28 07:16:13;;;;;;;10.70;8.57;;;18.30;48.00;;;11.95;58.95;96272.09;5031217;28;20025;-59
2022/04/28 07:18:38;;;;;;;11.48;8.55;;;18.50;47.30;;;11.88;60.05;96278.72;5063104;28;20033;-59
2022/04/28 07:21:11;;;;;;;10.77;9.27;;;18.70;46.80;;;12.15;59.58;96287.44;5032895;28;20025;-59
2022/04/28 07:23:39;;;;;;;10.88;8.60;;;18.90;46.60;;;12.44;57.67;96285.22;5064876;28;20136;-56
2022/04/28 07:26:11;;;;;;;11.77;9.32;;;19.00;46.50;;;12.56;57.74;96294.91;5032548;28;20502;-55
2022/04/28 07:28:36;;;;;;;9.95;8.52;;;19.30;46.10;;;12.50;57.93;96291.38;5032982;28;20036;-55
2022/04/28 07:31:11;;;;;;;10.88;8.73;;;19.40;45.30;;;12.62;57.30;96291.19;5048116;28;20033;-56
2022/04/28 07:33:43;;;;;;;11.48;8.60;;;19.60;44.60;;;12.94;57.19;96288.38;5031494;28;20037;-56
2022/04/28 07:36:09;;;;;;;9.77;8.65;;;19.80;44.50;;;13.14;55.74;96301.03;5032066;28;20044;-52
2022/04/28 07:38:34;;;;;;;10.20;8.40;;;20.00;44.20;;;13.17;55.83;96289.81;5014878;28;20037;-54
2022/04/28 07:41:01;;;;;;;10.45;8.23;;;20.10;43.60;;;13.23;55.24;96294.09;5028773;28;20046;-49
2022/04/28 07:43:30;;;;;;;9.65;8.65;;;20.30;43.20;;;13.25;55.73;96291.97;5048301;28;20065;-49
2022/04/28 07:45:59;;;;;;;9.40;8.43;;;20.40;42.60;;;13.54;54.64;96294.19;5006615;28;20033;-55
2022/04/28 07:48:28;;;;;;;11.40;8.93;;;20.50;42.50;;;13.72;55.05;96293.66;5032950;28;20025;-54
2022/04/28 07:50:54;;;;;;;11.27;8.90;;;20.70;42.30;;;14.06;54.23;96298.50;5033236;28;20536;-52
2022/04/28 07:53:20;;;;;;;10.55;8.82;;;20.90;42.40;;;14.15;54.56;96296.88;5015449;28;20037;-52
2022/04/28 07:56:10;;;;;;;11.70;9.13;;;21.10;41.90;;;14.19;53.96;96303.28;5032880;28;20029;-55
2022/04/28 07:58:32;;;;;;;10.50;8.73;;;21.20;41.30;;;14.29;53.50;96300.63;5032749;28;20040;-54
2022/04/28 08:00:59;;;;;;;10.32;8.35;;;21.40;41.00;;;14.37;52.56;96298.47;5032877;28;20388;-53
2022/04/28 08:03:27;;;;;;;12.25;8.35;;;21.60;40.50;;;14.35;52.29;96301.38;4998894;28;20530;-54
2022/04/28 08:06:04;;;;;;;9.73;8.70;;;21.70;40.10;;;14.30;52.35;96296.06;5032795;28;20037;-52
2022/04/28 08:08:29;;;;;;;10.90;8.77;;;21.70;39.80;;;14.55;53.57;96293.34;5032822;28;20025;-53
2022/04/28 08:11:04;;;;;;;9.73;8.73;;;21.80;39.90;;;14.71;51.45;96302.16;5015081;28;20460;-53
2022/04/28 08:13:30;;;;;;;9.38;8.38;;;22.00;39.60;;;14.50;52.44;96296.00;5032362;28;20033;-53
2022/04/28 08:16:02;;;;;;;11.10;9.18;;;22.10;39.00;;;14.63;52.12;96299.22;5030614;28;20051;-51
2022/04/28 08:18:39;;;;;;;10.10;9.07;;;22.20;38.80;;;14.50;52.78;96306.72;5015123;28;20388;-52
2022/04/28 08:21:08;;;;;;;12.95;9.55;;;22.30;38.50;;;14.76;51.83;96312.03;5032619;28;20387;-53
2022/04/28 08:23:37;;;;;;;10.25;8.55;;;22.30;38.40;;;14.85;51.25;96305.03;5047888;28;20022;-52
2022/04/28 08:26:06;;;;;;;11.55;8.65;;;22.40;38.20;;;15.05;51.80;96309.53;5015124;28;20079;-53
2022/04/28 08:28:32;;;;;;;10.32;9.05;;;22.50;38.00;;;15.16;51.29;96305.72;5015007;28;20432;-56
2022/04/28 08:31:03;;;;;;;9.70;8.48;;;22.60;38.00;;;15.40;50.57;96313.94;5032624;28;20069;-53
2022/04/28 08:33:38;;;;;;;10.48;8.55;;;22.80;37.90;;;15.50;49.67;96315.75;5013547;28;20447;-55
2022/04/28 08:36:04;;;;;;;10.32;8.80;;;22.90;37.70;;;15.22;50.38;96311.88;5032156;28;20021;-51
2022/04/28 08:38:32;;;;;;;9.85;8.75;;;23.00;37.10;;;15.36;50.49;96320.94;5014344;28;20035;-54
2022/04/28 08:41:14;;;;;;;10.63;8.48;;;23.10;37.00;;;15.32;51.31;96311.81;5032138;28;20045;-55
2022/04/28 08:43:43;;;;;;;9.95;8.25;;;23.10;36.70;;;15.42;50.40;96317.16;5032291;28;20049;-56
2022/04/28 08:48:58;;;;;;;10.57;8.13;;;23.30;36.30;;;15.90;50.03;96327.34;5032192;28;20112;-52
2022/04/28 08:51:32;;;;;;;8.88;7.97;;;23.40;36.30;;;15.93;49.23;96326.78;5014547;28;20025;-56
2022/04/28 08:54:02;;;;;;;11.23;9.10;;;23.60;36.10;;;15.42;50.04;96322.50;5018352;28;20488;-54
2022/04/28 08:56:36;;;;;;;9.25;8.35;;;23.70;35.40;;;14.67;52.22;96324.44;5030827;28;20036;-56
2022/04/28 08:59:02;;;;;;;10.15;9.07;;;23.60;34.90;;;14.93;51.78;96328.63;5030919;28;20118;-57
2022/04/28 09:01:37;;;;;;;10.15;7.82;;;23.60;35.00;;;15.06;50.41;96326.44;5014336;28;20069;-54
2022/04/28 09:04:12;;;;;;;9.75;8.18;;;23.60;34.70;;;15.38;50.02;96326.81;5030789;28;20030;-55
2022/04/28 09:06:41;;;;;;;10.13;7.90;;;23.60;34.70;;;15.69;50.05;96342.78;5012195;28;20033;-52
2022/04/28 09:09:17;;;;;;;9.07;7.60;;;23.70;34.90;;;15.80;49.60;96333.59;5011006;28;20030;-55
2022/04/28 09:11:45;;;;;;;9.38;8.48;;;23.70;34.90;;;16.14;49.59;96336.28;5002798;28;20041;-55
2022/04/28 09:14:20;;;;;;;10.82;8.48;;;23.80;35.10;;;16.46;47.80;96328.75;5029551;28;20396;-55
2022/04/28 09:17:05;;;;;;;9.93;8.25;;;24.00;34.90;;;16.68;47.25;96328.28;5046885;28;20169;-54
2022/04/28 09:19:39;;;;;;;9.70;8.80;;;24.20;34.60;;;16.86;47.84;96330.25;5026917;28;20492;-56
2022/04/28 09:22:10;;;;;;;8.57;7.68;;;24.40;34.60;;;16.35;46.82;96328.03;5046833;28;20034;-53
2022/04/28 09:24:39;;;;;;;8.68;7.78;;;24.60;33.80;;;15.98;47.65;96317.88;5030567;28;20033;-54
2022/04/28 09:27:07;;;;;;;9.23;8.32;;;24.70;33.10;;;16.03;49.22;96326.69;5045661;28;20054;-50
2022/04/28 09:29:44;;;;;;;9.88;8.77;;;24.60;33.00;;;16.86;49.09;96328.38;5029239;28;20081;-55
2022/04/28 09:32:15;;;;;;;9.30;8.40;;;24.70;33.70;;;16.78;47.88;96315.53;5046655;28;20026;-53
2022/04/28 09:34:47;;;;;;;9.40;8.40;;;24.80;33.40;;;16.81;48.07;96324.91;5033751;28;20025;-51
2022/04/28 09:37:39;;;;;;;9.68;8.68;;;24.90;33.10;;;17.02;47.66;96325.50;5033605;28;20037;-51
2022/04/28 09:42:53;;;;;;;12.38;8.68;;;25.10;32.80;;;16.69;48.02;96317.22;5027950;28;20060;-51
2022/04/28 09:45:25;;;;;;;10.45;9.18;;;25.10;32.80;;;16.74;47.81;96317.16;5033648;28;20025;-52
2022/04/28 09:48:05;;;;;;;10.03;8.40;;;25.20;32.80;;;16.74;46.48;96314.47;4974868;28;20042;-54
2022/04/28 09:50:31;;;;;;;9.95;8.52;;;25.20;32.30;;;17.31;46.38;96307.34;5022794;28;20284;-54
2022/04/28 09:53:06;;;;;;;9.18;8.27;;;25.30;32.50;;;17.55;46.76;96317.28;5035717;28;20040;-49
2022/04/28 09:55:32;;;;;;;9.77;8.77;;;25.40;32.70;;;17.19;46.20;96312.34;5001156;28;20026;-55
2022/04/28 09:57:59;;;;;;;9.73;8.73;;;25.60;31.90;;;17.27;45.86;96302.84;5034211;28;20083;-55
2022/04/28 10:00:25;;;;;;;8.73;7.82;;;25.60;31.80;;;17.18;46.39;96307.28;5037165;28;20025;-54
2022/04/28 10:02:51;;;;;;;9.35;8.45;;;25.70;31.30;;;16.71;47.02;96306.19;5049998;28;20507;-52
2022/04/28 10:05:23;;;;;;;9.50;8.50;;;25.70;31.20;;;16.53;46.92;96289.69;5016133;28;20131;-54
2022/04/28 10:07:54;;;;;;;8.80;7.90;;;25.70;30.90;;;16.35;47.53;96306.53;5016800;28;20033;-50
2022/04/28 10:10:26;;;;;;;8.80;7.47;;;25.60;30.70;;;16.70;47.94;96299.97;4991107;28;20037;-51
2022/04/28 10:12:55;;;;;;;9.73;8.70;;;25.60;30.80;;;17.59;47.43;96307.50;5015469;28;20056;-51
2022/04/28 10:15:24;;;;;;;7.78;6.80;;;25.60;31.60;;;18.03;44.46;96303.66;5013918;28;20484;-52
2022/04/28 10:18:08;;;;;;;8.25;7.45;;;25.80;31.60;;;18.12;42.70;96303.78;5035926;28;20033;-56
2022/04/28 10:20:45;;;;;;;6.70;6.10;;;25.90;31.00;;;18.13;43.59;96303.47;5053451;28;20033;-50
2022/04/28 10:23:14;;;;;;;7.38;6.20;;;26.00;30.60;;;18.01;44.03;96298.53;5054842;28;20083;-53
2022/04/28 10:34:33;;;;;;;6.45;5.85;;;26.40;29.50;;;17.92;43.18;96300.28;5053502;28;20043;-50
2022/04/28 10:37:04;;;;;;;6.82;5.97;;;26.50;29.40;;;18.10;42.95;96301.38;5054648;28;20117;-53
2022/04/28 10:39:45;;;;;;;7.00;6.10;;;26.50;29.40;;;18.46;42.50;96304.25;5052108;28;20450;-57
2022/04/28 10:42:34;;;;;;;7.25;6.65;;;26.60;29.70;;;18.68;41.78;96300.88;5039169;28;20062;-53
2022/04/28 10:45:04;;;;;;;7.13;5.70;;;26.70;29.60;;;19.04;41.68;96310.22;5027070;28;20049;-56
2022/04/28 10:47:41;;;;;;;6.00;5.40;;;26.80;29.50;;;19.21;41.93;96313.13;5016600;28;20029;-53
2022/04/28 10:50:30;;;;;;;6.63;5.93;;;27.10;29.40;;;19.64;39.86;96312.75;5034202;28;20037;-52
2022/04/28 10:53:10;;;;;;;6.35;5.75;;;27.30;29.50;;;19.46;40.30;96308.25;5034348;28;20030;-53
2022/04/28 10:55:44;;;;;;;6.60;6.00;;;27.50;29.10;;;19.45;39.53;96315.56;5013243;28;20050;-53
2022/04/28 10:58:27;;;;;;;6.78;6.18;;;27.60;28.60;;;19.35;41.63;96313.88;5032294;28;20124;-54
2022/04/28 11:01:01;;;;;;;7.28;6.57;;;27.70;28.60;;;19.48;39.91;96311.47;5034174;28;20044;-55